sensor_id;sensor_type;location;lat;lon;timestamp;temperature;humidity
38938;DHT22;24727;51.974;20.868;2024-03-07T00:00:08;3.60;1.00
38938;DHT22;24727;51.974;20.868;2024-03-07T00:02:59;3.60;1.00
38938;DHT22;24727;51.974;20.868;2024-03-07T00:05:26;3.60;1.00
38938;DHT22;24727;51.974;20.868;2024-03-07T00:07:52;3.60;1.00
38938;DHT22;24727;51.974;20.868;2024-03-07T00:10:18;3.70;1.00
38938;DHT22;24727;51.974;20.868;2024-03-07T00:12:44;3.60;1.00
38938;DHT22;24727;51.974;20.868;2024-03-07T00:15:12;3.40;99.90
38938;DHT22;24727;51.974;20.868;2024-03-07T00:17:39;3.30;99.90
38938;DHT22;24727;51.974;20.868;2024-03-07T00:20:05;3.40;1.00
38938;DHT22;24727;51.974;20.868;2024-03-07T00:22:35;3.30;1.00
38938;DHT22;24727;51.974;20.868;2024-03-07T00:25:02;3.20;99.90
38938;DHT22;24727;51.974;20.868;2024-03-07T00:27:30;3.30;1.00
38938;DHT22;24727;51.974;20.868;2024-03-07T00:29:57;3.30;1.00
38938;DHT22;24727;51.974;20.868;2024-03-07T00:32:23;3.20;99.90
38938;DHT22;24727;51.974;20.868;2024-03-07T00:34:49;3.30;1.00
38938;DHT22;24727;51.974;20.868;2024-03-07T00:37:16;3.10;99.90
38938;DHT22;24727;51.974;20.868;2024-03-07T00:39:42;3.10;1.00
38938;DHT22;24727;51.974;20.868;2024-03-07T00:42:09;3.10;1.00
38938;DHT22;24727;51.974;20.868;2024-03-07T00:44:35;3.10;1.00
38938;DHT22;24727;51.974;20.868;2024-03-07T00:47:02;3.00;1.00
38938;DHT22;24727;51.974;20.868;2024-03-07T00:49:30;2.90;1.40
38938;DHT22;24727;51.974;20.868;2024-03-07T00:51:57;3.00;1.00
38938;DHT22;24727;51.974;20.868;2024-03-07T00:54:23;3.10;1.00
38938;DHT22;24727;51.974;20.868;2024-03-07T00:56:49;3.00;1.00
38938;DHT22;24727;51.974;20.868;2024-03-07T00:59:15;3.20;1.00
38938;DHT22;24727;51.974;20.868;2024-03-07T01:01:42;3.30;1.00
38938;DHT22;24727;51.974;20.868;2024-03-07T01:04:08;3.00;1.00
38938;DHT22;24727;51.974;20.868;2024-03-07T01:06:34;3.10;1.00
38938;DHT22;24727;51.974;20.868;2024-03-07T01:09:02;3.10;1.00
38938;DHT22;24727;51.974;20.868;2024-03-07T01:11:28;3.20;1.00
38938;DHT22;24727;51.974;20.868;2024-03-07T01:13:54;3.30;1.00
38938;DHT22;24727;51.974;20.868;2024-03-07T01:16:21;3.40;1.00
38938;DHT22;24727;51.974;20.868;2024-03-07T01:18:47;3.40;1.00
38938;DHT22;24727;51.974;20.868;2024-03-07T01:21:14;3.30;1.00
38938;DHT22;24727;51.974;20.868;2024-03-07T01:23:41;3.40;1.00
38938;DHT22;24727;51.974;20.868;2024-03-07T01:26:07;3.20;1.00
38938;DHT22;24727;51.974;20.868;2024-03-07T01:28:34;3.20;1.00
38938;DHT22;24727;51.974;20.868;2024-03-07T01:31:00;3.20;1.00
38938;DHT22;24727;51.974;20.868;2024-03-07T01:33:25;3.20;1.00
38938;DHT22;24727;51.974;20.868;2024-03-07T01:35:52;3.10;1.40
38938;DHT22;24727;51.974;20.868;2024-03-07T01:38:18;3.10;1.00
38938;DHT22;24727;51.974;20.868;2024-03-07T01:40:44;3.00;1.00
38938;DHT22;24727;51.974;20.868;2024-03-07T01:43:10;3.00;99.90
38938;DHT22;24727;51.974;20.868;2024-03-07T01:45:39;3.00;1.00
38938;DHT22;24727;51.974;20.868;2024-03-07T01:48:05;2.90;99.90
38938;DHT22;24727;51.974;20.868;2024-03-07T01:50:33;2.90;99.90
38938;DHT22;24727;51.974;20.868;2024-03-07T01:53:00;2.80;1.00
38938;DHT22;24727;51.974;20.868;2024-03-07T01:55:27;2.90;1.00
38938;DHT22;24727;51.974;20.868;2024-03-07T01:57:58;2.90;1.00
38938;DHT22;24727;51.974;20.868;2024-03-07T02:00:25;2.90;1.00
38938;DHT22;24727;51.974;20.868;2024-03-07T02:02:52;2.90;1.00
38938;DHT22;24727;51.974;20.868;2024-03-07T02:05:19;2.90;1.00
38938;DHT22;24727;51.974;20.868;2024-03-07T02:07:45;2.90;1.00
38938;DHT22;24727;51.974;20.868;2024-03-07T02:10:12;2.90;1.00
38938;DHT22;24727;51.974;20.868;2024-03-07T02:12:38;2.70;99.90
38938;DHT22;24727;51.974;20.868;2024-03-07T02:15:04;2.60;99.90
38938;DHT22;24727;51.974;20.868;2024-03-07T02:17:31;2.70;99.90
38938;DHT22;24727;51.974;20.868;2024-03-07T02:19:57;2.80;1.00
38938;DHT22;24727;51.974;20.868;2024-03-07T02:22:24;2.70;1.00
38938;DHT22;24727;51.974;20.868;2024-03-07T02:24:52;2.70;99.90
38938;DHT22;24727;51.974;20.868;2024-03-07T02:27:18;2.70;1.00
38938;DHT22;24727;51.974;20.868;2024-03-07T02:29:44;2.50;99.90
38938;DHT22;24727;51.974;20.868;2024-03-07T02:32:10;2.60;99.90
38938;DHT22;24727;51.974;20.868;2024-03-07T02:34:37;2.40;99.90
38938;DHT22;24727;51.974;20.868;2024-03-07T02:37:03;2.40;99.90
38938;DHT22;24727;51.974;20.868;2024-03-07T02:39:29;2.60;1.00
38938;DHT22;24727;51.974;20.868;2024-03-07T02:41:54;2.50;99.90
38938;DHT22;24727;51.974;20.868;2024-03-07T02:44:20;2.50;1.00
38938;DHT22;24727;51.974;20.868;2024-03-07T02:46:46;2.60;1.00
38938;DHT22;24727;51.974;20.868;2024-03-07T02:49:15;2.50;1.00
38938;DHT22;24727;51.974;20.868;2024-03-07T02:51:40;2.50;1.00
38938;DHT22;24727;51.974;20.868;2024-03-07T02:54:09;2.50;1.00
38938;DHT22;24727;51.974;20.868;2024-03-07T02:56:35;2.30;99.90
38938;DHT22;24727;51.974;20.868;2024-03-07T02:59:01;2.40;1.00
38938;DHT22;24727;51.974;20.868;2024-03-07T03:01:26;2.50;1.00
38938;DHT22;24727;51.974;20.868;2024-03-07T03:03:53;2.30;99.90
38938;DHT22;24727;51.974;20.868;2024-03-07T03:06:19;2.30;99.90
38938;DHT22;24727;51.974;20.868;2024-03-07T03:08:47;2.30;99.90
38938;DHT22;24727;51.974;20.868;2024-03-07T03:11:13;2.30;99.90
38938;DHT22;24727;51.974;20.868;2024-03-07T03:13:40;2.30;99.90
38938;DHT22;24727;51.974;20.868;2024-03-07T03:16:06;2.30;99.90
38938;DHT22;24727;51.974;20.868;2024-03-07T03:18:35;2.20;99.90
38938;DHT22;24727;51.974;20.868;2024-03-07T03:21:02;2.30;1.00
38938;DHT22;24727;51.974;20.868;2024-03-07T03:23:31;2.30;1.00
38938;DHT22;24727;51.974;20.868;2024-03-07T03:25:57;2.10;99.90
38938;DHT22;24727;51.974;20.868;2024-03-07T03:28:23;2.20;1.00
38938;DHT22;24727;51.974;20.868;2024-03-07T03:30:49;2.10;1.00
38938;DHT22;24727;51.974;20.868;2024-03-07T03:33:18;2.20;1.00
38938;DHT22;24727;51.974;20.868;2024-03-07T03:35:46;2.10;1.00
38938;DHT22;24727;51.974;20.868;2024-03-07T03:38:12;1.90;99.90
38938;DHT22;24727;51.974;20.868;2024-03-07T03:40:38;1.80;99.90
38938;DHT22;24727;51.974;20.868;2024-03-07T03:43:04;1.80;99.90
38938;DHT22;24727;51.974;20.868;2024-03-07T03:45:31;1.80;1.00
38938;DHT22;24727;51.974;20.868;2024-03-07T03:47:59;1.70;1.00
38938;DHT22;24727;51.974;20.868;2024-03-07T03:50:25;1.70;1.00
38938;DHT22;24727;51.974;20.868;2024-03-07T03:52:52;1.80;1.00
38938;DHT22;24727;51.974;20.868;2024-03-07T03:55:18;1.70;1.00
38938;DHT22;24727;51.974;20.868;2024-03-07T03:57:44;1.70;1.00
38938;DHT22;24727;51.974;20.868;2024-03-07T04:00:12;1.70;1.00
38938;DHT22;24727;51.974;20.868;2024-03-07T04:02:42;1.80;1.00
38938;DHT22;24727;51.974;20.868;2024-03-07T04:05:11;1.80;1.00
38938;DHT22;24727;51.974;20.868;2024-03-07T04:07:39;1.60;1.00
38938;DHT22;24727;51.974;20.868;2024-03-07T04:10:05;1.50;1.00
38938;DHT22;24727;51.974;20.868;2024-03-07T04:12:35;1.60;1.00
38938;DHT22;24727;51.974;20.868;2024-03-07T04:15:10;1.70;1.00
38938;DHT22;24727;51.974;20.868;2024-03-07T04:17:37;1.80;1.00
38938;DHT22;24727;51.974;20.868;2024-03-07T04:20:04;1.80;1.00
38938;DHT22;24727;51.974;20.868;2024-03-07T04:22:32;1.60;1.00
38938;DHT22;24727;51.974;20.868;2024-03-07T04:24:58;1.70;1.00
38938;DHT22;24727;51.974;20.868;2024-03-07T04:27:24;1.60;1.00
38938;DHT22;24727;51.974;20.868;2024-03-07T04:29:51;1.50;1.00
38938;DHT22;24727;51.974;20.868;2024-03-07T04:32:18;1.50;1.00
38938;DHT22;24727;51.974;20.868;2024-03-07T04:34:46;1.50;1.00
38938;DHT22;24727;51.974;20.868;2024-03-07T04:37:12;1.50;1.00
38938;DHT22;24727;51.974;20.868;2024-03-07T04:39:39;1.40;1.00
38938;DHT22;24727;51.974;20.868;2024-03-07T04:42:06;1.50;1.00
38938;DHT22;24727;51.974;20.868;2024-03-07T04:44:33;1.40;1.00
38938;DHT22;24727;51.974;20.868;2024-03-07T04:47:02;1.30;1.00
38938;DHT22;24727;51.974;20.868;2024-03-07T04:49:29;1.20;1.00
38938;DHT22;24727;51.974;20.868;2024-03-07T04:51:57;1.10;1.00
38938;DHT22;24727;51.974;20.868;2024-03-07T04:54:24;1.10;1.00
38938;DHT22;24727;51.974;20.868;2024-03-07T04:56:51;1.00;1.00
38938;DHT22;24727;51.974;20.868;2024-03-07T04:59:18;1.00;1.00
38938;DHT22;24727;51.974;20.868;2024-03-07T05:01:45;1.10;1.00
38938;DHT22;24727;51.974;20.868;2024-03-07T05:04:39;1.00;1.00
38938;DHT22;24727;51.974;20.868;2024-03-07T05:07:05;1.10;1.00
38938;DHT22;24727;51.974;20.868;2024-03-07T05:09:31;0.90;1.00
38938;DHT22;24727;51.974;20.868;2024-03-07T05:11:59;0.90;1.00
38938;DHT22;24727;51.974;20.868;2024-03-07T05:14:25;0.90;1.00
38938;DHT22;24727;51.974;20.868;2024-03-07T05:16:51;1.00;1.00
38938;DHT22;24727;51.974;20.868;2024-03-07T05:19:34;1.00;1.00
38938;DHT22;24727;51.974;20.868;2024-03-07T05:22:00;0.90;1.00
38938;DHT22;24727;51.974;20.868;2024-03-07T05:24:27;1.00;1.00
38938;DHT22;24727;51.974;20.868;2024-03-07T05:26:53;1.00;1.00
38938;DHT22;24727;51.974;20.868;2024-03-07T05:29:19;0.90;1.00
38938;DHT22;24727;51.974;20.868;2024-03-07T05:31:45;0.90;1.00
38938;DHT22;24727;51.974;20.868;2024-03-07T05:34:15;0.90;1.00
38938;DHT22;24727;51.974;20.868;2024-03-07T05:36:47;0.70;1.00
38938;DHT22;24727;51.974;20.868;2024-03-07T05:39:14;0.70;1.00
38938;DHT22;24727;51.974;20.868;2024-03-07T05:41:44;0.70;1.00
38938;DHT22;24727;51.974;20.868;2024-03-07T05:44:14;0.70;1.00
38938;DHT22;24727;51.974;20.868;2024-03-07T05:46:42;0.80;2.30
38938;DHT22;24727;51.974;20.868;2024-03-07T05:49:17;0.80;2.70
38938;DHT22;24727;51.974;20.868;2024-03-07T05:51:43;0.80;4.00
38938;DHT22;24727;51.974;20.868;2024-03-07T05:54:11;0.90;4.40
38938;DHT22;24727;51.974;20.868;2024-03-07T05:56:39;0.80;4.60
38938;DHT22;24727;51.974;20.868;2024-03-07T05:59:08;0.90;5.20
38938;DHT22;24727;51.974;20.868;2024-03-07T06:01:37;0.90;4.80
38938;DHT22;24727;51.974;20.868;2024-03-07T06:04:05;0.80;3.90
38938;DHT22;24727;51.974;20.868;2024-03-07T06:06:33;0.70;1.00
38938;DHT22;24727;51.974;20.868;2024-03-07T06:09:01;0.80;1.30
38938;DHT22;24727;51.974;20.868;2024-03-07T06:11:28;0.60;1.00
38938;DHT22;24727;51.974;20.868;2024-03-07T06:13:54;0.60;1.00
38938;DHT22;24727;51.974;20.868;2024-03-07T06:16:20;0.70;1.00
38938;DHT22;24727;51.974;20.868;2024-03-07T06:18:46;0.80;1.00
38938;DHT22;24727;51.974;20.868;2024-03-07T06:21:12;0.90;1.00
38938;DHT22;24727;51.974;20.868;2024-03-07T06:23:39;0.90;1.00
38938;DHT22;24727;51.974;20.868;2024-03-07T06:26:05;1.00;1.00
38938;DHT22;24727;51.974;20.868;2024-03-07T06:28:38;1.00;1.00
38938;DHT22;24727;51.974;20.868;2024-03-07T06:31:04;1.10;1.00
38938;DHT22;24727;51.974;20.868;2024-03-07T06:33:33;1.10;1.00
38938;DHT22;24727;51.974;20.868;2024-03-07T06:36:00;1.20;1.00
38938;DHT22;24727;51.974;20.868;2024-03-07T06:38:27;1.00;1.00
38938;DHT22;24727;51.974;20.868;2024-03-07T06:40:52;1.00;1.00
38938;DHT22;24727;51.974;20.868;2024-03-07T06:43:18;1.00;1.00
38938;DHT22;24727;51.974;20.868;2024-03-07T06:45:44;0.90;1.00
38938;DHT22;24727;51.974;20.868;2024-03-07T06:48:12;1.00;1.00
38938;DHT22;24727;51.974;20.868;2024-03-07T06:50:40;1.00;1.00
38938;DHT22;24727;51.974;20.868;2024-03-07T06:53:06;1.20;1.00
38938;DHT22;24727;51.974;20.868;2024-03-07T06:55:33;1.30;1.00
38938;DHT22;24727;51.974;20.868;2024-03-07T06:58:01;1.20;1.00
38938;DHT22;24727;51.974;20.868;2024-03-07T07:00:31;1.30;1.00
38938;DHT22;24727;51.974;20.868;2024-03-07T07:03:01;1.50;1.00
38938;DHT22;24727;51.974;20.868;2024-03-07T07:05:30;1.50;1.00
38938;DHT22;24727;51.974;20.868;2024-03-07T07:07:56;1.50;1.00
38938;DHT22;24727;51.974;20.868;2024-03-07T07:10:22;1.60;1.00
38938;DHT22;24727;51.974;20.868;2024-03-07T07:12:50;1.70;1.00
38938;DHT22;24727;51.974;20.868;2024-03-07T07:15:18;1.80;1.00
38938;DHT22;24727;51.974;20.868;2024-03-07T07:17:48;2.00;1.00
38938;DHT22;24727;51.974;20.868;2024-03-07T07:20:17;2.10;1.00
38938;DHT22;24727;51.974;20.868;2024-03-07T07:22:44;2.40;1.00
38938;DHT22;24727;51.974;20.868;2024-03-07T07:25:12;2.30;1.00
38938;DHT22;24727;51.974;20.868;2024-03-07T07:27:45;2.60;1.00
38938;DHT22;24727;51.974;20.868;2024-03-07T07:30:13;2.80;1.00
38938;DHT22;24727;51.974;20.868;2024-03-07T07:32:40;2.80;1.00
38938;DHT22;24727;51.974;20.868;2024-03-07T07:35:06;2.80;1.00
38938;DHT22;24727;51.974;20.868;2024-03-07T07:37:40;2.80;1.00
38938;DHT22;24727;51.974;20.868;2024-03-07T07:40:08;2.70;1.00
38938;DHT22;24727;51.974;20.868;2024-03-07T07:42:37;2.80;1.40
38938;DHT22;24727;51.974;20.868;2024-03-07T07:45:08;2.70;99.90
38938;DHT22;24727;51.974;20.868;2024-03-07T07:47:47;2.70;99.90
38938;DHT22;24727;51.974;20.868;2024-03-07T07:50:18;3.00;1.00
38938;DHT22;24727;51.974;20.868;2024-03-07T07:52:50;3.20;1.00
38938;DHT22;24727;51.974;20.868;2024-03-07T07:55:21;3.40;1.00
38938;DHT22;24727;51.974;20.868;2024-03-07T07:57:49;3.00;1.00
38938;DHT22;24727;51.974;20.868;2024-03-07T08:00:19;3.00;1.00
38938;DHT22;24727;51.974;20.868;2024-03-07T08:02:53;3.10;1.00
38938;DHT22;24727;51.974;20.868;2024-03-07T08:05:24;3.20;1.00
38938;DHT22;24727;51.974;20.868;2024-03-07T08:07:51;3.50;1.40
38938;DHT22;24727;51.974;20.868;2024-03-07T08:10:18;3.30;99.90
38938;DHT22;24727;51.974;20.868;2024-03-07T08:12:45;3.10;99.90
38938;DHT22;24727;51.974;20.868;2024-03-07T08:15:14;3.40;1.40
38938;DHT22;24727;51.974;20.868;2024-03-07T08:17:47;3.60;1.00
38938;DHT22;24727;51.974;20.868;2024-03-07T08:20:17;3.50;99.90
38938;DHT22;24727;51.974;20.868;2024-03-07T08:22:46;3.50;99.90
38938;DHT22;24727;51.974;20.868;2024-03-07T08:25:14;3.50;1.00
38938;DHT22;24727;51.974;20.868;2024-03-07T08:27:41;3.60;99.90
38938;DHT22;24727;51.974;20.868;2024-03-07T08:30:09;3.50;1.00
38938;DHT22;24727;51.974;20.868;2024-03-07T08:32:46;3.50;1.00
38938;DHT22;24727;51.974;20.868;2024-03-07T08:35:12;3.40;99.90
38938;DHT22;24727;51.974;20.868;2024-03-07T08:37:39;3.40;99.90
38938;DHT22;24727;51.974;20.868;2024-03-07T08:40:07;3.50;1.00
38938;DHT22;24727;51.974;20.868;2024-03-07T08:42:38;3.50;99.90
38938;DHT22;24727;51.974;20.868;2024-03-07T08:45:05;3.70;99.90
38938;DHT22;24727;51.974;20.868;2024-03-07T08:47:32;4.00;99.90
38938;DHT22;24727;51.974;20.868;2024-03-07T08:49:59;3.80;99.90
38938;DHT22;24727;51.974;20.868;2024-03-07T08:52:25;4.10;99.90
38938;DHT22;24727;51.974;20.868;2024-03-07T08:54:53;4.10;99.90
38938;DHT22;24727;51.974;20.868;2024-03-07T08:57:19;4.10;99.90
38938;DHT22;24727;51.974;20.868;2024-03-07T08:59:45;4.10;99.90
38938;DHT22;24727;51.974;20.868;2024-03-07T09:02:12;4.20;99.90
38938;DHT22;24727;51.974;20.868;2024-03-07T09:04:38;4.30;99.90
38938;DHT22;24727;51.974;20.868;2024-03-07T09:07:04;4.50;99.90
38938;DHT22;24727;51.974;20.868;2024-03-07T09:09:32;4.40;99.90
38938;DHT22;24727;51.974;20.868;2024-03-07T09:11:59;4.50;99.90
38938;DHT22;24727;51.974;20.868;2024-03-07T09:14:30;4.40;99.90
38938;DHT22;24727;51.974;20.868;2024-03-07T09:16:56;4.70;99.90
38938;DHT22;24727;51.974;20.868;2024-03-07T09:19:22;4.80;99.90
38938;DHT22;24727;51.974;20.868;2024-03-07T09:21:53;5.00;99.90
38938;DHT22;24727;51.974;20.868;2024-03-07T09:24:20;5.30;99.90
38938;DHT22;24727;51.974;20.868;2024-03-07T09:26:52;5.50;99.90
38938;DHT22;24727;51.974;20.868;2024-03-07T09:29:19;5.40;99.90
38938;DHT22;24727;51.974;20.868;2024-03-07T09:31:45;5.50;99.90
38938;DHT22;24727;51.974;20.868;2024-03-07T09:34:15;5.40;99.90
38938;DHT22;24727;51.974;20.868;2024-03-07T09:36:41;5.50;99.90
38938;DHT22;24727;51.974;20.868;2024-03-07T09:39:08;5.30;99.90
38938;DHT22;24727;51.974;20.868;2024-03-07T09:41:35;5.40;99.90
38938;DHT22;24727;51.974;20.868;2024-03-07T09:44:01;5.50;99.90
38938;DHT22;24727;51.974;20.868;2024-03-07T09:46:28;5.20;99.90
38938;DHT22;24727;51.974;20.868;2024-03-07T09:48:55;5.20;99.90
38938;DHT22;24727;51.974;20.868;2024-03-07T09:51:21;5.20;99.90
38938;DHT22;24727;51.974;20.868;2024-03-07T09:53:49;5.40;99.90
38938;DHT22;24727;51.974;20.868;2024-03-07T09:56:22;5.60;99.90
38938;DHT22;24727;51.974;20.868;2024-03-07T09:58:50;5.30;99.90
38938;DHT22;24727;51.974;20.868;2024-03-07T10:01:20;5.20;99.90
38938;DHT22;24727;51.974;20.868;2024-03-07T10:03:47;5.50;99.90
38938;DHT22;24727;51.974;20.868;2024-03-07T10:06:14;5.50;99.90
38938;DHT22;24727;51.974;20.868;2024-03-07T10:08:43;5.80;99.90
38938;DHT22;24727;51.974;20.868;2024-03-07T10:11:09;5.90;99.90
38938;DHT22;24727;51.974;20.868;2024-03-07T10:13:35;6.00;99.90
38938;DHT22;24727;51.974;20.868;2024-03-07T10:16:02;5.90;99.90
38938;DHT22;24727;51.974;20.868;2024-03-07T10:18:27;6.10;99.90
38938;DHT22;24727;51.974;20.868;2024-03-07T10:20:54;6.20;99.90
38938;DHT22;24727;51.974;20.868;2024-03-07T10:23:21;6.10;99.90
38938;DHT22;24727;51.974;20.868;2024-03-07T10:25:48;6.10;99.90
38938;DHT22;24727;51.974;20.868;2024-03-07T10:28:16;5.80;99.90
38938;DHT22;24727;51.974;20.868;2024-03-07T10:30:43;5.90;99.90
38938;DHT22;24727;51.974;20.868;2024-03-07T10:33:13;5.90;99.90
38938;DHT22;24727;51.974;20.868;2024-03-07T10:35:39;6.10;99.90
38938;DHT22;24727;51.974;20.868;2024-03-07T10:38:05;6.10;99.90
38938;DHT22;24727;51.974;20.868;2024-03-07T10:40:38;6.00;99.90
38938;DHT22;24727;51.974;20.868;2024-03-07T10:43:10;6.20;99.90
38938;DHT22;24727;51.974;20.868;2024-03-07T10:45:49;6.40;99.90
38938;DHT22;24727;51.974;20.868;2024-03-07T10:48:19;6.50;99.90
38938;DHT22;24727;51.974;20.868;2024-03-07T10:53:32;6.40;99.90
38938;DHT22;24727;51.974;20.868;2024-03-07T11:01:26;6.20;99.90
38938;DHT22;24727;51.974;20.868;2024-03-07T11:03:55;6.50;99.90
38938;DHT22;24727;51.974;20.868;2024-03-07T11:06:24;6.40;99.90
38938;DHT22;24727;51.974;20.868;2024-03-07T11:08:52;6.40;99.90
38938;DHT22;24727;51.974;20.868;2024-03-07T11:11:18;6.50;99.90
38938;DHT22;24727;51.974;20.868;2024-03-07T11:13:46;6.80;99.90
38938;DHT22;24727;51.974;20.868;2024-03-07T11:16:13;6.80;99.90
38938;DHT22;24727;51.974;20.868;2024-03-07T11:18:40;7.00;99.90
38938;DHT22;24727;51.974;20.868;2024-03-07T11:21:06;6.90;99.90
38938;DHT22;24727;51.974;20.868;2024-03-07T11:23:33;6.60;99.90
38938;DHT22;24727;51.974;20.868;2024-03-07T11:26:10;6.80;99.90
38938;DHT22;24727;51.974;20.868;2024-03-07T11:28:41;6.60;99.90
38938;DHT22;24727;51.974;20.868;2024-03-07T11:31:13;6.50;99.90
38938;DHT22;24727;51.974;20.868;2024-03-07T11:33:40;6.80;99.90
38938;DHT22;24727;51.974;20.868;2024-03-07T11:36:10;7.00;99.90
38938;DHT22;24727;51.974;20.868;2024-03-07T11:38:48;6.90;99.90
38938;DHT22;24727;51.974;20.868;2024-03-07T11:41:14;7.00;99.90
38938;DHT22;24727;51.974;20.868;2024-03-07T11:43:41;6.90;99.90
38938;DHT22;24727;51.974;20.868;2024-03-07T11:46:10;6.90;99.90
38938;DHT22;24727;51.974;20.868;2024-03-07T11:48:40;7.00;99.90
38938;DHT22;24727;51.974;20.868;2024-03-07T11:51:13;7.20;99.90
38938;DHT22;24727;51.974;20.868;2024-03-07T11:53:40;7.00;99.90
38938;DHT22;24727;51.974;20.868;2024-03-07T11:56:06;7.20;99.90
38938;DHT22;24727;51.974;20.868;2024-03-07T11:58:38;7.50;99.90
38938;DHT22;24727;51.974;20.868;2024-03-07T12:01:08;7.40;99.90
38938;DHT22;24727;51.974;20.868;2024-03-07T12:03:39;7.20;99.90
38938;DHT22;24727;51.974;20.868;2024-03-07T12:06:05;7.20;99.90
38938;DHT22;24727;51.974;20.868;2024-03-07T12:08:31;7.20;99.90
38938;DHT22;24727;51.974;20.868;2024-03-07T12:10:57;7.20;99.90
38938;DHT22;24727;51.974;20.868;2024-03-07T12:13:23;7.30;99.90
38938;DHT22;24727;51.974;20.868;2024-03-07T12:15:50;7.40;99.90
38938;DHT22;24727;51.974;20.868;2024-03-07T12:18:21;7.20;99.90
38938;DHT22;24727;51.974;20.868;2024-03-07T12:20:48;7.60;99.90
38938;DHT22;24727;51.974;20.868;2024-03-07T12:23:22;7.40;99.90
38938;DHT22;24727;51.974;20.868;2024-03-07T12:26:01;7.20;99.90
38938;DHT22;24727;51.974;20.868;2024-03-07T12:28:27;7.20;99.90
38938;DHT22;24727;51.974;20.868;2024-03-07T12:30:59;7.30;99.90
38938;DHT22;24727;51.974;20.868;2024-03-07T12:33:29;7.20;99.90
38938;DHT22;24727;51.974;20.868;2024-03-07T12:35:56;7.20;99.90
38938;DHT22;24727;51.974;20.868;2024-03-07T12:38:32;7.60;99.90
38938;DHT22;24727;51.974;20.868;2024-03-07T12:41:07;7.50;99.90
38938;DHT22;24727;51.974;20.868;2024-03-07T12:43:40;7.60;99.90
38938;DHT22;24727;51.974;20.868;2024-03-07T12:46:10;7.40;99.90
38938;DHT22;24727;51.974;20.868;2024-03-07T12:48:40;7.60;99.90
38938;DHT22;24727;51.974;20.868;2024-03-07T12:51:07;7.70;99.90
38938;DHT22;24727;51.974;20.868;2024-03-07T12:53:33;7.50;99.90
38938;DHT22;24727;51.974;20.868;2024-03-07T12:56:00;7.50;99.90
38938;DHT22;24727;51.974;20.868;2024-03-07T12:58:26;7.20;99.90
38938;DHT22;24727;51.974;20.868;2024-03-07T13:00:57;7.20;99.90
38938;DHT22;24727;51.974;20.868;2024-03-07T13:03:26;7.20;99.90
38938;DHT22;24727;51.974;20.868;2024-03-07T13:05:58;7.50;99.90
38938;DHT22;24727;51.974;20.868;2024-03-07T13:08:28;7.10;99.90
38938;DHT22;24727;51.974;20.868;2024-03-07T13:10:57;7.10;99.90
38938;DHT22;24727;51.974;20.868;2024-03-07T13:13:27;7.10;99.90
38938;DHT22;24727;51.974;20.868;2024-03-07T13:15:53;7.10;99.90
38938;DHT22;24727;51.974;20.868;2024-03-07T13:18:22;7.20;99.90
38938;DHT22;24727;51.974;20.868;2024-03-07T13:20:48;7.20;99.90
38938;DHT22;24727;51.974;20.868;2024-03-07T13:23:14;7.40;99.90
38938;DHT22;24727;51.974;20.868;2024-03-07T13:25:40;7.60;99.90
38938;DHT22;24727;51.974;20.868;2024-03-07T13:28:11;7.80;99.90
38938;DHT22;24727;51.974;20.868;2024-03-07T13:30:43;7.80;99.90
38938;DHT22;24727;51.974;20.868;2024-03-07T13:33:10;7.50;99.90
38938;DHT22;24727;51.974;20.868;2024-03-07T13:35:38;7.50;99.90
38938;DHT22;24727;51.974;20.868;2024-03-07T13:38:04;7.60;99.90
38938;DHT22;24727;51.974;20.868;2024-03-07T13:40:30;7.70;99.90
38938;DHT22;24727;51.974;20.868;2024-03-07T13:42:58;7.80;99.90
38938;DHT22;24727;51.974;20.868;2024-03-07T13:45:28;8.70;99.90
38938;DHT22;24727;51.974;20.868;2024-03-07T13:47:58;9.70;99.90
38938;DHT22;24727;51.974;20.868;2024-03-07T13:50:28;10.70;99.90
38938;DHT22;24727;51.974;20.868;2024-03-07T13:53:05;10.40;99.90
38938;DHT22;24727;51.974;20.868;2024-03-07T14:31:43;7.40;99.90
38938;DHT22;24727;51.974;20.868;2024-03-07T14:36:52;7.40;99.90
38938;DHT22;24727;51.974;20.868;2024-03-07T14:39:19;7.30;99.90
38938;DHT22;24727;51.974;20.868;2024-03-07T14:41:52;7.60;99.90
38938;DHT22;24727;51.974;20.868;2024-03-07T14:44:21;7.30;99.90
38938;DHT22;24727;51.974;20.868;2024-03-07T14:47:04;7.40;99.90
38938;DHT22;24727;51.974;20.868;2024-03-07T14:49:34;7.20;99.90
38938;DHT22;24727;51.974;20.868;2024-03-07T14:52:02;7.20;99.90
38938;DHT22;24727;51.974;20.868;2024-03-07T14:54:28;7.30;99.90
38938;DHT22;24727;51.974;20.868;2024-03-07T14:56:54;7.50;99.90
38938;DHT22;24727;51.974;20.868;2024-03-07T14:59:20;7.80;99.90
38938;DHT22;24727;51.974;20.868;2024-03-07T15:01:46;7.80;99.90
38938;DHT22;24727;51.974;20.868;2024-03-07T15:04:13;7.90;99.90
38938;DHT22;24727;51.974;20.868;2024-03-07T15:06:40;7.40;99.90
38938;DHT22;24727;51.974;20.868;2024-03-07T15:09:08;7.50;99.90
38938;DHT22;24727;51.974;20.868;2024-03-07T15:11:38;7.30;99.90
38938;DHT22;24727;51.974;20.868;2024-03-07T15:14:06;7.40;99.90
38938;DHT22;24727;51.974;20.868;2024-03-07T15:16:37;7.30;99.90
38938;DHT22;24727;51.974;20.868;2024-03-07T15:19:07;7.20;99.90
38938;DHT22;24727;51.974;20.868;2024-03-07T15:21:37;7.20;99.90
38938;DHT22;24727;51.974;20.868;2024-03-07T15:24:04;7.10;99.90
38938;DHT22;24727;51.974;20.868;2024-03-07T15:26:30;7.10;99.90
38938;DHT22;24727;51.974;20.868;2024-03-07T15:28:59;7.10;99.90
38938;DHT22;24727;51.974;20.868;2024-03-07T15:31:28;7.20;99.90
38938;DHT22;24727;51.974;20.868;2024-03-07T15:33:55;6.80;99.90
38938;DHT22;24727;51.974;20.868;2024-03-07T15:36:21;6.80;99.90
38938;DHT22;24727;51.974;20.868;2024-03-07T15:38:48;6.90;99.90
38938;DHT22;24727;51.974;20.868;2024-03-07T15:41:14;7.00;99.90
38938;DHT22;24727;51.974;20.868;2024-03-07T15:43:43;7.00;99.90
38938;DHT22;24727;51.974;20.868;2024-03-07T15:46:14;7.10;99.90
38938;DHT22;24727;51.974;20.868;2024-03-07T15:48:46;7.10;99.90
38938;DHT22;24727;51.974;20.868;2024-03-07T15:51:15;6.80;99.90
38938;DHT22;24727;51.974;20.868;2024-03-07T15:53:41;6.70;99.90
38938;DHT22;24727;51.974;20.868;2024-03-07T15:56:08;6.70;99.90
38938;DHT22;24727;51.974;20.868;2024-03-07T15:58:34;6.80;99.90
38938;DHT22;24727;51.974;20.868;2024-03-07T16:01:02;6.60;99.90
38938;DHT22;24727;51.974;20.868;2024-03-07T16:03:28;6.40;99.90
38938;DHT22;24727;51.974;20.868;2024-03-07T16:05:54;6.40;99.90
38938;DHT22;24727;51.974;20.868;2024-03-07T16:08:20;6.40;99.90
38938;DHT22;24727;51.974;20.868;2024-03-07T16:10:46;6.50;99.90
38938;DHT22;24727;51.974;20.868;2024-03-07T16:13:13;6.40;99.90
38938;DHT22;24727;51.974;20.868;2024-03-07T16:15:44;6.30;99.90
38938;DHT22;24727;51.974;20.868;2024-03-07T16:18:11;5.90;99.90
38938;DHT22;24727;51.974;20.868;2024-03-07T16:20:38;6.00;99.90
38938;DHT22;24727;51.974;20.868;2024-03-07T16:23:04;5.90;1.00
38938;DHT22;24727;51.974;20.868;2024-03-07T16:25:31;6.00;1.00
38938;DHT22;24727;51.974;20.868;2024-03-07T16:27:57;5.90;1.00